createdAt,value
2023-04-03T00:01:44.925Z,2.40
2023-04-03T00:04:15.128Z,1.73
2023-04-03T00:06:45.308Z,1.58
2023-04-03T00:09:14.132Z,1.88
2023-04-03T00:11:42.099Z,1.70
2023-04-03T00:14:10.524Z,2.63
2023-04-03T00:16:38.983Z,1.73
2023-04-03T00:19:07.473Z,2.00
2023-04-03T00:21:35.955Z,2.20
2023-04-03T00:24:04.699Z,1.80
2023-04-03T00:26:32.593Z,1.80
2023-04-03T00:29:01.038Z,1.85
2023-04-03T00:31:30.551Z,2.53
2023-04-03T00:33:57.924Z,2.65
2023-04-03T00:36:26.357Z,2.47
2023-04-03T00:38:54.707Z,1.77
2023-04-03T00:41:23.329Z,1.58
2023-04-03T00:43:51.536Z,1.92
2023-04-03T00:46:19.993Z,2.10
2023-04-03T00:48:50.986Z,2.20
2023-04-03T00:51:27.291Z,2.65
2023-04-03T00:54:08.118Z,1.73
2023-04-03T00:56:40.225Z,1.88
2023-04-03T00:59:26.458Z,2.38
2023-04-03T01:01:58.852Z,2.05
2023-04-03T01:04:39.629Z,2.50
2023-04-03T01:07:16.706Z,1.95
2023-04-03T01:09:54.025Z,2.40
2023-04-03T01:12:31.794Z,1.77
2023-04-03T01:15:14.966Z,2.03
2023-04-03T01:17:50.988Z,2.13
2023-04-03T01:20:37.079Z,1.85
2023-04-03T01:23:10.050Z,2.05
2023-04-03T01:25:51.364Z,2.42
2023-04-03T01:28:36.703Z,1.83
2023-04-03T01:31:23.510Z,2.28
2023-04-03T01:33:55.528Z,1.88
2023-04-03T01:36:32.091Z,2.00
2023-04-03T01:39:02.679Z,2.53
2023-04-03T01:41:33.403Z,2.38
2023-04-03T01:44:02.843Z,1.98
2023-04-03T01:46:33.377Z,2.10
2023-04-03T01:49:03.680Z,1.88
2023-04-03T01:51:34.307Z,2.42
2023-04-03T01:54:04.473Z,1.67
2023-04-03T01:56:34.257Z,2.47
2023-04-03T01:59:04.072Z,2.00
2023-04-03T02:01:33.904Z,1.95
2023-04-03T02:04:04.046Z,1.70
2023-04-03T02:06:33.839Z,2.05
2023-04-03T02:09:05.243Z,1.60
2023-04-03T02:11:34.589Z,1.88
2023-04-03T02:14:04.396Z,2.00
2023-04-03T02:16:34.785Z,2.20
2023-04-03T02:19:04.405Z,1.88
2023-04-03T02:21:34.284Z,1.95
2023-04-03T02:24:04.351Z,2.15
2023-04-03T02:26:33.989Z,1.83
2023-04-03T02:29:04.157Z,2.13
2023-04-03T02:31:34.058Z,2.08
2023-04-03T02:34:04.125Z,2.22
2023-04-03T02:36:33.868Z,2.20
2023-04-03T02:39:05.102Z,1.98
2023-04-03T02:41:36.584Z,1.70
2023-04-03T02:44:12.625Z,2.10
2023-04-03T02:46:40.620Z,2.38
2023-04-03T02:49:08.836Z,1.90
2023-04-03T02:51:37.684Z,1.98
2023-04-03T02:54:06.242Z,2.13
2023-04-03T02:56:34.699Z,2.17
2023-04-03T02:59:03.425Z,2.30
2023-04-03T03:01:33.567Z,2.05
2023-04-03T03:04:02.940Z,2.17
2023-04-03T03:06:31.202Z,1.90
2023-04-03T03:09:00.165Z,2.20
2023-04-03T03:11:28.335Z,2.05
2023-04-03T03:13:58.416Z,1.88
2023-04-03T03:16:25.696Z,2.17
2023-04-03T03:18:54.065Z,1.95
2023-04-03T03:21:22.607Z,2.33
2023-04-03T03:23:50.849Z,2.72
2023-04-03T03:26:19.410Z,2.60
2023-04-03T03:28:47.684Z,2.55
2023-04-03T03:31:16.483Z,1.88
2023-04-03T03:33:44.537Z,2.15
2023-04-03T03:36:13.762Z,2.42
2023-04-03T03:38:42.001Z,1.92
2023-04-03T03:41:10.419Z,2.72
2023-04-03T03:43:39.636Z,2.75
2023-04-03T03:46:07.572Z,2.63
2023-04-03T03:48:36.456Z,3.58
2023-04-03T03:51:04.689Z,3.30
2023-04-03T03:53:32.856Z,2.17
2023-04-03T03:56:01.308Z,2.80
2023-04-03T03:58:29.711Z,3.03
2023-04-03T04:00:58.058Z,2.80
2023-04-03T04:03:26.550Z,2.65
2023-04-03T04:05:54.979Z,2.78
2023-04-03T04:08:24.085Z,2.42
2023-04-03T04:10:51.980Z,3.33
2023-04-03T04:13:20.433Z,2.28
2023-04-03T04:15:48.640Z,2.53
2023-04-03T04:18:17.175Z,2.17
2023-04-03T04:20:47.418Z,2.20
2023-04-03T04:23:19.833Z,2.40
2023-04-03T04:25:51.089Z,2.28
2023-04-03T04:28:21.463Z,1.95
2023-04-03T04:30:51.663Z,3.22
2023-04-03T04:33:21.804Z,2.35
2023-04-03T04:35:52.997Z,2.55
2023-04-03T04:38:23.212Z,2.53
2023-04-03T04:40:53.315Z,2.65
2023-04-03T04:43:23.463Z,2.30
2023-04-03T04:46:12.723Z,2.67
2023-04-03T04:48:43.064Z,2.85
2023-04-03T04:51:13.568Z,3.10
2023-04-03T04:53:44.283Z,2.75
2023-04-03T04:56:14.283Z,2.90
2023-04-03T04:58:44.000Z,3.47
2023-04-03T05:01:14.051Z,3.13
2023-04-03T05:03:44.161Z,2.80
2023-04-03T05:06:14.270Z,2.75
2023-04-03T05:08:44.025Z,2.63
2023-04-03T05:11:13.900Z,3.05
2023-04-03T05:13:43.731Z,3.30
2023-04-03T05:16:13.620Z,2.50
2023-04-03T05:18:43.782Z,3.55
2023-04-03T05:21:13.705Z,3.05
2023-04-03T05:23:43.925Z,2.92
2023-04-03T05:26:13.866Z,3.00
2023-04-03T05:28:43.682Z,2.88
2023-04-03T05:31:14.800Z,2.83
2023-04-03T05:33:44.895Z,2.83
2023-04-03T05:36:14.637Z,2.83
2023-04-03T05:38:44.904Z,4.10
2023-04-03T05:41:16.571Z,3.20
2023-04-03T05:43:46.553Z,3.00
2023-04-03T05:46:20.508Z,2.85
2023-04-03T05:48:50.392Z,3.50
2023-04-03T05:51:29.946Z,2.70
2023-04-03T05:54:20.589Z,2.95
2023-04-03T05:56:52.086Z,2.70
2023-04-03T05:59:23.309Z,2.15
2023-04-03T06:01:53.407Z,2.40
2023-04-03T06:04:23.390Z,3.58
2023-04-03T06:06:58.709Z,3.38
2023-04-03T06:09:30.326Z,3.83
2023-04-03T06:11:59.869Z,3.70
2023-04-03T06:14:28.814Z,2.38
2023-04-03T06:17:00.703Z,2.75
2023-04-03T06:19:32.106Z,2.45
2023-04-03T06:22:02.673Z,3.08
2023-04-03T06:24:33.962Z,3.20
2023-04-03T06:27:04.848Z,3.08
2023-04-03T06:29:35.085Z,2.50
2023-04-03T06:32:05.626Z,2.70
2023-04-03T06:34:36.569Z,2.40
2023-04-03T06:37:07.414Z,1.88
2023-04-03T06:39:37.755Z,2.20
2023-04-03T06:42:17.116Z,2.10
2023-04-03T06:44:47.408Z,2.45
2023-04-03T06:47:18.389Z,2.20
2023-04-03T06:49:47.279Z,2.50
2023-04-03T06:52:15.694Z,2.00
2023-04-03T06:54:44.159Z,2.70
2023-04-03T06:57:12.551Z,2.97
2023-04-03T06:59:41.390Z,1.60
2023-04-03T07:02:13.923Z,2.30
2023-04-03T07:04:44.227Z,1.80
2023-04-03T07:07:14.424Z,1.27
2023-04-03T07:09:45.291Z,1.98
2023-04-03T07:12:18.756Z,2.03
2023-04-03T07:14:48.920Z,1.88
2023-04-03T07:17:19.187Z,1.73
2023-04-03T07:19:49.369Z,1.13
2023-04-03T07:22:19.775Z,2.25
2023-04-03T07:24:50.018Z,1.40
2023-04-03T07:27:20.772Z,1.73
2023-04-03T07:29:51.028Z,1.35
2023-04-03T07:32:21.275Z,1.35
2023-04-03T07:34:51.511Z,1.00
2023-04-03T07:37:21.733Z,1.58
2023-04-03T07:39:52.097Z,1.50
2023-04-03T07:42:22.560Z,1.52
2023-04-03T07:44:52.703Z,1.50
2023-04-03T07:47:23.360Z,2.17
2023-04-03T07:49:53.512Z,2.05
2023-04-03T07:52:24.072Z,2.00
2023-04-03T07:54:54.173Z,1.73
2023-04-03T07:57:24.376Z,1.55
2023-04-03T07:59:55.117Z,1.60
2023-04-03T08:02:25.771Z,1.80
2023-04-03T08:04:56.488Z,1.65
2023-04-03T08:07:26.984Z,1.40
2023-04-03T08:09:57.397Z,1.27
2023-04-03T08:12:29.716Z,2.03
2023-04-03T08:15:02.468Z,1.80
2023-04-03T08:17:32.762Z,1.17
2023-04-03T08:20:07.960Z,1.65
2023-04-03T08:22:38.433Z,1.40
2023-04-03T08:25:09.701Z,1.63
2023-04-03T08:27:39.232Z,1.20
2023-04-03T08:30:10.315Z,2.03
2023-04-03T08:32:43.048Z,2.25
2023-04-03T08:35:13.306Z,1.35
2023-04-03T08:37:42.943Z,1.70
2023-04-03T08:40:18.379Z,1.30
2023-04-03T08:43:23.646Z,1.30
2023-04-03T08:46:03.798Z,1.70
2023-04-03T08:48:44.369Z,1.27
2023-04-03T08:51:21.937Z,1.38
2023-04-03T08:54:16.185Z,1.48
2023-04-03T08:56:46.499Z,1.45
2023-04-03T08:59:31.116Z,1.30
2023-04-03T09:02:22.425Z,1.40
2023-04-03T09:04:53.092Z,1.50
2023-04-03T09:07:47.297Z,1.75
2023-04-03T09:10:33.488Z,1.63
2023-04-03T09:13:42.812Z,2.03
2023-04-03T09:16:39.733Z,1.63
2023-04-03T09:20:04.764Z,1.30
2023-04-03T09:22:49.684Z,1.42
2023-04-03T09:25:34.501Z,1.75
2023-04-03T09:28:10.996Z,1.42
2023-04-03T09:30:42.579Z,2.03
2023-04-03T09:33:15.274Z,1.10
2023-04-03T09:35:49.136Z,1.83
2023-04-03T09:38:24.064Z,1.88
2023-04-03T09:41:17.215Z,1.40
2023-04-03T09:43:57.027Z,1.35
2023-04-03T09:46:35.088Z,1.33
2023-04-03T09:49:09.869Z,1.52
2023-04-03T09:51:42.235Z,1.50
2023-04-03T09:54:42.165Z,1.33
2023-04-03T10:00:00.771Z,1.52
2023-04-03T10:02:40.348Z,1.30
2023-04-03T10:05:43.330Z,1.13
2023-04-03T10:08:16.442Z,1.40
2023-04-03T10:11:24.823Z,1.65
2023-04-03T10:14:02.135Z,1.27
2023-04-03T10:17:01.018Z,1.10
2023-04-03T10:20:26.393Z,1.98
2023-04-03T10:23:51.180Z,1.80
2023-04-03T10:27:11.908Z,1.85
2023-04-03T10:30:02.721Z,1.77
2023-04-03T10:33:00.875Z,1.58
2023-04-03T10:36:19.938Z,1.50
2023-04-03T10:39:30.841Z,1.98
2023-04-03T10:42:48.428Z,1.50
2023-04-03T10:45:48.412Z,1.60
2023-04-03T10:52:11.388Z,1.92
2023-04-03T10:55:19.033Z,1.90
2023-04-03T10:57:51.516Z,1.33
2023-04-03T11:00:44.973Z,1.75
2023-04-03T11:03:41.830Z,1.67
2023-04-03T11:06:19.213Z,1.58
2023-04-03T11:09:07.958Z,1.58
2023-04-03T11:11:44.164Z,1.70
2023-04-03T11:14:36.211Z,2.03
2023-04-03T11:17:24.721Z,1.40
2023-04-03T11:20:34.540Z,1.65
2023-04-03T11:23:35.530Z,1.30
2023-04-03T11:26:26.619Z,2.13
2023-04-03T11:29:17.882Z,2.22
2023-04-03T11:32:59.657Z,2.10
2023-04-03T11:35:33.205Z,1.35
2023-04-03T11:38:07.710Z,1.60
2023-04-03T11:40:41.746Z,1.85
2023-04-03T11:43:23.719Z,1.85
2023-04-03T11:46:04.267Z,1.90
2023-04-03T11:48:49.796Z,1.58
2023-04-03T11:51:30.116Z,1.77
2023-04-03T11:54:44.923Z,1.73
2023-04-03T11:58:00.397Z,2.10
2023-04-03T12:00:51.713Z,1.67
2023-04-03T12:03:28.107Z,1.75
2023-04-03T12:06:08.301Z,1.42
2023-04-03T12:08:43.032Z,1.58
2023-04-03T12:11:13.209Z,1.65
2023-04-03T12:14:04.593Z,1.70
2023-04-03T12:19:46.053Z,1.85
2023-04-03T12:22:21.925Z,1.55
2023-04-03T12:24:55.767Z,2.08
2023-04-03T12:27:56.081Z,1.80
2023-04-03T12:30:32.824Z,1.90
2023-04-03T12:33:33.642Z,1.85
2023-04-03T12:37:21.466Z,1.85
2023-04-03T12:40:51.233Z,1.13
2023-04-03T12:43:59.303Z,1.45
2023-04-03T12:46:49.782Z,1.30
2023-04-03T12:49:39.377Z,1.60
2023-04-03T12:52:41.920Z,1.67
2023-04-03T12:55:22.263Z,1.40
2023-04-03T12:57:52.588Z,1.52
2023-04-03T13:00:40.192Z,1.77
2023-04-03T13:03:30.069Z,1.35
2023-04-03T13:06:05.018Z,1.95
2023-04-03T13:08:35.174Z,1.67
2023-04-03T13:11:13.481Z,1.85
2023-04-03T13:14:00.956Z,1.63
2023-04-03T13:16:31.407Z,1.90
2023-04-03T13:19:01.701Z,1.67
2023-04-03T13:21:36.514Z,2.00
2023-04-03T13:24:15.333Z,1.52
2023-04-03T13:26:45.991Z,1.80
2023-04-03T13:29:38.695Z,2.38
2023-04-03T13:32:24.510Z,1.50
2023-04-03T13:34:55.724Z,1.55
2023-04-03T13:37:34.576Z,1.35
2023-04-03T13:40:09.653Z,1.40
2023-04-03T13:42:43.305Z,1.80
2023-04-03T13:45:31.499Z,1.80
2023-04-03T13:48:24.342Z,1.40
2023-04-03T13:51:04.451Z,1.30
2023-04-03T13:53:51.112Z,1.50
2023-04-03T13:56:38.860Z,1.50
2023-04-03T13:59:17.261Z,1.45
2023-04-03T14:02:06.446Z,1.55
2023-04-03T14:04:59.423Z,1.95
2023-04-03T14:07:32.358Z,1.63
2023-04-03T14:10:02.835Z,1.98
2023-04-03T14:12:42.964Z,1.88
2023-04-03T14:15:31.049Z,1.30
2023-04-03T14:18:01.532Z,1.75
2023-04-03T14:20:32.679Z,1.02
2023-04-03T14:23:02.689Z,1.40
2023-04-03T14:25:32.326Z,1.40
2023-04-03T14:28:13.626Z,1.35
2023-04-03T14:30:44.837Z,1.80
2023-04-03T14:33:22.787Z,1.42
2023-04-03T14:35:55.086Z,2.15
2023-04-03T14:38:32.317Z,3.58
2023-04-03T14:41:13.521Z,1.73
2023-04-03T14:43:47.838Z,1.35
2023-04-03T14:46:54.377Z,1.58
2023-04-03T14:49:30.547Z,1.60
2023-04-03T14:51:59.955Z,1.40
2023-04-03T14:54:30.304Z,1.48
2023-04-03T14:57:03.134Z,1.35
2023-04-03T14:59:34.102Z,1.40
2023-04-03T15:02:03.267Z,1.45
2023-04-03T15:04:33.579Z,1.52
2023-04-03T15:07:04.164Z,1.50
2023-04-03T15:09:37.095Z,1.55
2023-04-03T15:14:51.952Z,2.40
2023-04-03T15:17:25.156Z,2.17
2023-04-03T15:19:55.359Z,2.20
2023-04-03T15:22:25.618Z,2.40
2023-04-03T15:24:56.150Z,2.13
2023-04-03T15:27:26.342Z,2.03
2023-04-03T15:29:56.474Z,2.10
2023-04-03T15:32:26.642Z,2.30
2023-04-03T15:34:57.030Z,1.40
2023-04-03T15:37:27.610Z,1.73
2023-04-03T15:39:57.775Z,1.90
2023-04-03T15:42:27.987Z,2.20
2023-04-03T15:44:58.119Z,1.80
2023-04-03T15:47:29.528Z,2.28
2023-04-03T15:50:01.075Z,1.95
2023-04-03T15:52:31.299Z,1.75
2023-04-03T15:55:01.451Z,1.77
2023-04-03T16:00:25.250Z,1.58
2023-04-03T16:03:23.136Z,1.90
2023-04-03T16:05:54.432Z,2.20
2023-04-03T16:08:21.962Z,1.88
2023-04-03T16:10:50.749Z,2.00
2023-04-03T16:13:18.621Z,2.70
2023-04-03T16:15:47.499Z,3.17
2023-04-03T16:18:15.892Z,2.33
2023-04-03T16:20:44.877Z,1.73
2023-04-03T16:23:13.438Z,1.63
2023-04-03T16:25:40.847Z,2.13
2023-04-03T16:28:09.142Z,2.10
2023-04-03T16:30:37.580Z,2.28
2023-04-03T16:33:06.058Z,2.47
2023-04-03T16:35:34.385Z,1.65
2023-04-03T16:38:03.405Z,2.03
2023-04-03T16:40:31.502Z,2.17
2023-04-03T16:42:59.710Z,2.15
2023-04-03T16:45:28.793Z,1.70
2023-04-03T16:47:56.656Z,1.85
2023-04-03T16:50:25.070Z,1.80
2023-04-03T16:52:53.415Z,1.75
2023-04-03T16:55:22.002Z,2.13
2023-04-03T16:57:50.377Z,1.65
2023-04-03T17:00:18.913Z,1.88
2023-04-03T17:02:47.115Z,2.03
2023-04-03T17:05:15.662Z,1.98
2023-04-03T17:07:43.964Z,1.80
2023-04-03T17:10:14.464Z,2.22
2023-04-03T17:12:43.786Z,2.00
2023-04-03T17:15:12.435Z,2.10
2023-04-03T17:17:41.272Z,2.47
2023-04-03T17:20:11.463Z,3.05
2023-04-03T17:22:41.719Z,3.63
2023-04-03T17:25:12.407Z,3.60
2023-04-03T17:27:42.660Z,2.47
2023-04-03T17:30:13.364Z,3.22
2023-04-03T17:32:43.671Z,2.10
2023-04-03T17:35:13.890Z,1.65
2023-04-03T17:37:44.060Z,1.80
2023-04-03T17:40:15.245Z,2.30
2023-04-03T17:42:45.765Z,2.45
2023-04-03T17:45:16.268Z,2.00
2023-04-03T17:47:46.768Z,2.38
2023-04-03T17:50:17.017Z,2.75
2023-04-03T17:52:47.868Z,2.53
2023-04-03T17:55:18.626Z,4.20
2023-04-03T17:57:48.790Z,3.58
2023-04-03T18:00:19.360Z,4.20
2023-04-03T18:02:54.467Z,3.40
2023-04-03T18:05:30.501Z,3.20
2023-04-03T18:08:01.971Z,3.28
2023-04-03T18:10:32.290Z,3.58
2023-04-03T18:13:04.205Z,2.53
2023-04-03T18:15:34.757Z,2.35
2023-04-03T18:18:04.983Z,2.65
2023-04-03T18:20:35.119Z,2.22
2023-04-03T18:23:05.802Z,3.25
2023-04-03T18:25:38.377Z,2.33
2023-04-03T18:28:09.774Z,2.10
2023-04-03T18:30:42.750Z,2.20
2023-04-03T18:33:13.190Z,2.97
2023-04-03T18:35:43.588Z,2.92
2023-04-03T18:38:14.464Z,2.30
2023-04-03T18:40:44.851Z,2.78
2023-04-03T18:43:14.970Z,2.40
2023-04-03T18:45:42.560Z,2.45
2023-04-03T18:48:10.983Z,2.15
2023-04-03T18:50:39.959Z,2.40
2023-04-03T18:53:07.501Z,3.00
2023-04-03T18:55:36.091Z,2.28
2023-04-03T18:58:04.361Z,2.15
2023-04-03T19:00:33.698Z,2.53
2023-04-03T19:03:01.270Z,3.45
2023-04-03T19:05:29.926Z,2.05
2023-04-03T19:07:58.984Z,3.38
2023-04-03T19:10:29.189Z,3.47
2023-04-03T19:12:59.341Z,3.20
2023-04-03T19:15:29.950Z,2.72
2023-04-03T19:17:57.751Z,2.92
2023-04-03T19:20:27.691Z,3.35
2023-04-03T19:22:57.900Z,3.63
2023-04-03T19:25:41.713Z,3.63
2023-04-03T19:28:13.683Z,2.70
2023-04-03T19:30:47.294Z,2.65
2023-04-03T19:33:17.530Z,2.58
2023-04-03T19:35:47.663Z,2.55
2023-04-03T19:38:17.617Z,2.55
2023-04-03T19:40:47.942Z,3.00
2023-04-03T19:43:17.882Z,4.65
2023-04-03T19:45:47.979Z,2.90
2023-04-03T19:48:18.170Z,2.83
2023-04-03T19:50:47.946Z,2.45
2023-04-03T19:53:22.281Z,2.20
2023-04-03T19:55:52.011Z,2.58
2023-04-03T19:58:20.535Z,2.38
2023-04-03T20:00:49.100Z,2.90
2023-04-03T20:03:17.231Z,2.45
2023-04-03T20:05:47.144Z,2.42
2023-04-03T20:08:18.454Z,4.90
2023-04-03T20:10:48.073Z,2.17
2023-04-03T20:13:18.162Z,2.38
2023-04-03T20:15:48.075Z,3.63
2023-04-03T20:18:21.404Z,3.83
2023-04-03T20:21:02.364Z,2.90
2023-04-03T20:23:32.051Z,3.08
2023-04-03T20:26:09.198Z,2.63
2023-04-03T20:28:40.208Z,3.33
2023-04-03T20:31:12.122Z,3.63
2023-04-03T20:33:40.497Z,3.28
2023-04-03T20:36:10.773Z,2.90
2023-04-03T20:38:40.711Z,2.65
2023-04-03T20:41:10.689Z,3.70
2023-04-03T20:43:43.013Z,3.70
2023-04-03T20:46:14.420Z,3.42
2023-04-03T20:48:44.590Z,3.03
2023-04-03T20:51:20.358Z,2.58
2023-04-03T20:53:49.549Z,3.30
2023-04-03T20:56:18.888Z,2.90
2023-04-03T20:58:49.745Z,3.33
2023-04-03T21:01:25.326Z,2.58
2023-04-03T21:04:07.375Z,3.20
2023-04-03T21:07:52.427Z,2.85
2023-04-03T21:11:37.586Z,2.83
2023-04-03T21:15:23.153Z,2.45
2023-04-03T21:18:08.596Z,2.90
2023-04-03T21:20:43.675Z,2.50
2023-04-03T21:23:16.935Z,2.70
2023-04-03T21:25:48.785Z,2.40
2023-04-03T21:28:19.224Z,2.65
2023-04-03T21:30:49.760Z,2.40
2023-04-03T21:33:19.904Z,2.70
2023-04-03T21:35:57.719Z,2.92
2023-04-03T21:38:28.311Z,3.22
2023-04-03T21:40:59.426Z,2.42
2023-04-03T21:43:30.556Z,2.92
2023-04-03T21:46:00.718Z,2.78
2023-04-03T21:48:31.068Z,2.83
2023-04-03T21:51:07.010Z,2.42
2023-04-03T21:53:37.642Z,2.67
2023-04-03T21:56:06.643Z,2.50
2023-04-03T21:58:34.495Z,2.55
2023-04-03T22:01:14.731Z,2.70
2023-04-03T22:03:47.600Z,2.33
2023-04-03T22:06:18.173Z,3.58
2023-04-03T22:08:48.268Z,2.78
2023-04-03T22:11:18.596Z,2.55
2023-04-03T22:13:53.846Z,2.42
2023-04-03T22:16:24.177Z,3.20
2023-04-03T22:18:55.107Z,2.65
2023-04-03T22:21:25.698Z,2.85
2023-04-03T22:23:55.938Z,2.47
2023-04-03T22:26:27.218Z,2.42
2023-04-03T22:28:57.449Z,2.80
2023-04-03T22:31:28.030Z,2.58
2023-04-03T22:33:58.172Z,2.45
2023-04-03T22:36:28.259Z,2.70
2023-04-03T22:39:00.745Z,2.95
2023-04-03T22:41:28.215Z,2.60
2023-04-03T22:43:57.956Z,2.60
2023-04-03T22:46:28.416Z,2.95
2023-04-03T22:48:59.016Z,3.20
2023-04-03T22:51:29.130Z,3.25
2023-04-03T22:53:59.222Z,2.17
2023-04-03T22:56:29.580Z,2.80
2023-04-03T22:58:59.811Z,2.67
2023-04-03T23:01:30.414Z,2.47
2023-04-03T23:04:00.959Z,3.15
2023-04-03T23:06:31.328Z,3.38
2023-04-03T23:09:01.981Z,2.92
2023-04-03T23:11:32.249Z,2.47
2023-04-03T23:14:03.266Z,1.98
2023-04-03T23:16:33.404Z,2.78
2023-04-03T23:19:03.801Z,2.70
2023-04-03T23:21:34.023Z,2.08
2023-04-03T23:24:04.420Z,2.45
2023-04-03T23:26:34.589Z,2.58
2023-04-03T23:29:04.780Z,2.95
2023-04-03T23:31:34.522Z,2.75
2023-04-03T23:34:04.779Z,2.53
2023-04-03T23:36:34.579Z,2.83
2023-04-03T23:39:05.097Z,2.65
2023-04-03T23:41:35.270Z,2.30
2023-04-03T23:44:05.026Z,3.03
2023-04-03T23:46:35.114Z,3.47
2023-04-03T23:49:05.417Z,2.65
2023-04-03T23:51:35.154Z,3.13
2023-04-03T23:54:05.959Z,2.88
2023-04-03T23:56:35.963Z,2.45
2023-04-03T23:59:06.118Z,2.53
